createdAt,value
2022-10-17T00:00:35.472Z,6.20
2022-10-17T00:01:35.726Z,6.10
2022-10-17T00:02:35.973Z,5.80
2022-10-17T00:03:43.241Z,5.90
2022-10-17T00:04:36.467Z,5.90
2022-10-17T00:05:36.731Z,6.20
2022-10-17T00:06:36.995Z,5.60
2022-10-17T00:07:37.289Z,6.20
2022-10-17T00:08:37.536Z,6.20
2022-10-17T00:09:37.756Z,5.90
2022-10-17T00:10:38.010Z,6.00
2022-10-17T00:11:38.244Z,6.30
2022-10-17T00:12:38.468Z,5.90
2022-10-17T00:13:38.694Z,6.00
2022-10-17T00:14:38.913Z,6.20
2022-10-17T00:15:39.139Z,6.60
2022-10-17T00:16:39.393Z,6.00
2022-10-17T00:17:39.642Z,6.00
2022-10-17T00:18:39.875Z,6.70
2022-10-17T00:19:40.115Z,7.10
2022-10-17T00:20:40.342Z,6.50
2022-10-17T00:21:40.612Z,6.50
2022-10-17T00:22:40.852Z,6.60
2022-10-17T00:23:41.076Z,6.80
2022-10-17T00:24:41.301Z,6.50
2022-10-17T00:25:41.529Z,6.60
2022-10-17T00:26:41.791Z,6.30
2022-10-17T00:27:42.042Z,6.70
2022-10-17T00:28:42.312Z,6.60
2022-10-17T00:29:42.464Z,6.60
2022-10-17T00:30:42.717Z,6.90
2022-10-17T00:31:42.967Z,6.60
2022-10-17T00:32:43.180Z,6.70
2022-10-17T00:33:43.459Z,7.00
2022-10-17T00:34:43.713Z,6.70
2022-10-17T00:35:43.960Z,6.90
2022-10-17T00:36:44.199Z,6.70
2022-10-17T00:37:44.458Z,6.70
2022-10-17T00:38:44.695Z,6.70
2022-10-17T00:39:44.917Z,6.80
2022-10-17T00:40:45.164Z,6.80
2022-10-17T00:41:45.433Z,7.00
2022-10-17T00:42:45.688Z,6.70
2022-10-17T00:43:45.942Z,7.20
2022-10-17T00:44:46.158Z,6.90
2022-10-17T00:45:46.403Z,7.10
2022-10-17T00:46:46.666Z,7.20
2022-10-17T00:47:46.933Z,6.90
2022-10-17T00:48:47.197Z,6.90
2022-10-17T00:49:47.478Z,7.30
2022-10-17T00:50:47.719Z,6.40
2022-10-17T00:51:47.988Z,7.50
2022-10-17T00:52:48.236Z,7.10
2022-10-17T00:53:48.459Z,7.30
2022-10-17T00:54:48.699Z,7.30
2022-10-17T00:55:48.925Z,7.10
2022-10-17T00:56:49.186Z,7.30
2022-10-17T00:57:49.417Z,7.10
2022-10-17T00:58:49.646Z,7.30
2022-10-17T00:59:49.897Z,7.30
2022-10-17T01:00:50.134Z,7.00
2022-10-17T01:01:50.387Z,7.30
2022-10-17T01:02:50.636Z,6.90
2022-10-17T01:03:50.884Z,7.10
2022-10-17T01:04:51.146Z,7.50
2022-10-17T01:05:51.376Z,7.00
2022-10-17T01:06:51.637Z,7.10
2022-10-17T01:07:51.960Z,7.20
2022-10-17T01:08:52.175Z,7.40
2022-10-17T01:09:52.316Z,7.50
2022-10-17T01:10:52.547Z,7.10
2022-10-17T01:11:52.793Z,7.30
2022-10-17T01:12:53.031Z,7.10
2022-10-17T01:13:53.248Z,7.50
2022-10-17T01:14:53.484Z,6.90
2022-10-17T01:15:53.716Z,7.20
2022-10-17T01:16:53.964Z,6.90
2022-10-17T01:17:54.198Z,7.50
2022-10-17T01:18:54.532Z,7.20
2022-10-17T01:19:54.633Z,7.20
2022-10-17T01:20:54.863Z,7.20
2022-10-17T01:21:55.138Z,7.00
2022-10-17T01:22:55.380Z,6.70
2022-10-17T01:23:55.656Z,7.10
2022-10-17T01:24:55.884Z,7.00
2022-10-17T01:25:56.163Z,7.20
2022-10-17T01:26:56.445Z,6.90
2022-10-17T01:27:56.688Z,6.90
2022-10-17T01:28:56.925Z,6.50
2022-10-17T01:29:57.167Z,6.60
2022-10-17T01:30:57.445Z,7.10
2022-10-17T01:31:57.677Z,6.50
2022-10-17T01:32:57.925Z,6.50
2022-10-17T01:33:58.148Z,6.60
2022-10-17T01:34:58.409Z,6.80
2022-10-17T01:36:03.185Z,6.60
2022-10-17T01:36:59.918Z,6.30
2022-10-17T01:37:59.020Z,6.30
2022-10-17T01:38:59.291Z,6.90
2022-10-17T01:39:59.542Z,6.10
2022-10-17T01:41:00.703Z,6.50
2022-10-17T01:42:00.103Z,6.30
2022-10-17T01:43:00.338Z,6.50
2022-10-17T01:44:00.576Z,6.70
2022-10-17T01:45:00.834Z,6.00
2022-10-17T01:46:01.119Z,6.40
2022-10-17T01:47:01.405Z,6.20
2022-10-17T01:48:01.714Z,6.40
2022-10-17T01:49:01.833Z,6.40
2022-10-17T01:50:02.069Z,6.20
2022-10-17T01:51:02.329Z,6.10
2022-10-17T01:52:02.641Z,6.30
2022-10-17T01:53:02.788Z,5.90
2022-10-17T01:54:03.042Z,6.30
2022-10-17T01:55:03.286Z,6.30
2022-10-17T01:56:03.534Z,5.90
2022-10-17T01:57:03.820Z,5.80
2022-10-17T01:58:04.060Z,5.90
2022-10-17T01:59:04.312Z,6.20
2022-10-17T02:00:04.551Z,5.90
2022-10-17T02:01:04.862Z,5.80
2022-10-17T02:02:04.990Z,5.80
2022-10-17T02:03:05.247Z,5.50
2022-10-17T02:04:05.479Z,6.10
2022-10-17T02:05:05.722Z,6.10
2022-10-17T02:06:05.959Z,6.00
2022-10-17T02:07:06.249Z,5.90
2022-10-17T02:08:06.486Z,6.00
2022-10-17T02:09:06.747Z,5.80
2022-10-17T02:10:06.987Z,6.10
2022-10-17T02:11:07.247Z,5.90
2022-10-17T02:12:07.508Z,5.90
2022-10-17T02:13:07.783Z,5.40
2022-10-17T02:14:08.037Z,5.90
2022-10-17T02:15:08.224Z,5.50
2022-10-17T02:16:08.474Z,5.70
2022-10-17T02:17:08.742Z,5.60
2022-10-17T02:18:08.976Z,5.80
2022-10-17T02:19:09.224Z,5.60
2022-10-17T02:20:09.462Z,5.40
2022-10-17T02:21:09.696Z,5.80
2022-10-17T02:22:09.974Z,5.70
2022-10-17T02:23:10.255Z,5.60
2022-10-17T02:24:10.473Z,5.80
2022-10-17T02:25:10.718Z,5.60
2022-10-17T02:26:10.963Z,5.50
2022-10-17T02:27:11.227Z,5.70
2022-10-17T02:28:11.476Z,5.60
2022-10-17T02:29:11.719Z,5.60
2022-10-17T02:30:11.970Z,6.00
2022-10-17T02:31:12.207Z,5.70
2022-10-17T02:32:12.540Z,5.60
2022-10-17T02:33:12.704Z,5.70
2022-10-17T02:34:12.969Z,5.40
2022-10-17T02:35:13.203Z,5.60
2022-10-17T02:36:13.451Z,5.60
2022-10-17T02:37:13.714Z,5.80
2022-10-17T02:38:13.954Z,6.00
2022-10-17T02:39:14.187Z,5.70
2022-10-17T02:40:14.441Z,5.70
2022-10-17T02:41:14.679Z,5.50
2022-10-17T02:42:14.947Z,5.30
2022-10-17T02:43:15.182Z,5.60
2022-10-17T02:44:15.437Z,5.50
2022-10-17T02:45:15.701Z,5.70
2022-10-17T02:46:15.966Z,5.20
2022-10-17T02:47:16.219Z,5.60
2022-10-17T02:48:16.474Z,5.70
2022-10-17T02:49:16.715Z,5.60
2022-10-17T02:50:17.023Z,5.70
2022-10-17T02:51:17.225Z,6.50
2022-10-17T02:52:17.482Z,5.90
2022-10-17T02:53:17.710Z,6.10
2022-10-17T02:54:17.930Z,6.10
2022-10-17T02:55:18.193Z,6.00
2022-10-17T02:56:18.421Z,6.10
2022-10-17T02:57:18.689Z,6.20
2022-10-17T02:58:18.929Z,6.00
2022-10-17T02:59:19.186Z,5.80
2022-10-17T03:00:19.446Z,6.30
2022-10-17T03:01:19.762Z,6.60
2022-10-17T03:02:19.916Z,6.30
2022-10-17T03:03:20.153Z,6.30
2022-10-17T03:04:20.424Z,6.50
2022-10-17T03:05:20.707Z,6.40
2022-10-17T03:06:20.986Z,6.90
2022-10-17T03:07:21.253Z,6.40
2022-10-17T03:08:21.506Z,6.40
2022-10-17T03:09:21.766Z,6.50
2022-10-17T03:10:22.049Z,6.00
2022-10-17T03:11:22.288Z,6.00
2022-10-17T03:12:22.597Z,5.90
2022-10-17T03:13:22.756Z,5.80
2022-10-17T03:14:23.025Z,5.70
2022-10-17T03:15:23.249Z,6.00
2022-10-17T03:16:23.501Z,5.90
2022-10-17T03:17:23.789Z,6.30
2022-10-17T03:18:24.031Z,6.50
2022-10-17T03:19:24.271Z,6.50
2022-10-17T03:20:24.538Z,7.00
2022-10-17T03:21:24.780Z,6.30
2022-10-17T03:22:25.072Z,6.40
2022-10-17T03:23:25.198Z,6.80
2022-10-17T03:24:25.486Z,8.50
2022-10-17T03:25:25.707Z,8.10
2022-10-17T03:26:25.980Z,7.90
2022-10-17T03:27:26.480Z,7.80
2022-10-17T03:28:26.444Z,7.20
2022-10-17T03:29:26.679Z,7.40
2022-10-17T03:30:26.928Z,6.60
2022-10-17T03:31:27.173Z,7.20
2022-10-17T03:32:27.417Z,6.30
2022-10-17T03:33:27.657Z,6.30
2022-10-17T03:34:27.899Z,6.90
2022-10-17T03:35:28.142Z,6.60
2022-10-17T03:36:28.368Z,6.10
2022-10-17T03:37:28.917Z,7.10
2022-10-17T03:38:28.803Z,7.60
2022-10-17T03:39:29.059Z,8.50
2022-10-17T03:40:29.324Z,8.20
2022-10-17T03:41:29.600Z,7.90
2022-10-17T03:42:29.845Z,7.60
2022-10-17T03:43:30.028Z,8.90
2022-10-17T03:44:30.256Z,8.40
2022-10-17T03:45:30.487Z,8.40
2022-10-17T03:46:30.734Z,7.90
2022-10-17T03:47:31.285Z,9.00
2022-10-17T03:48:31.250Z,9.00
2022-10-17T03:49:31.498Z,8.60
2022-10-17T03:50:31.728Z,8.40
2022-10-17T03:51:31.953Z,7.70
2022-10-17T03:52:32.207Z,7.10
2022-10-17T03:53:32.446Z,6.80
2022-10-17T03:54:32.694Z,7.00
2022-10-17T03:55:32.923Z,6.40
2022-10-17T03:56:33.163Z,6.30
2022-10-17T03:57:33.410Z,6.20
2022-10-17T03:58:33.685Z,6.50
2022-10-17T03:59:33.901Z,6.20
2022-10-17T04:00:34.126Z,5.90
2022-10-17T04:01:34.500Z,6.10
2022-10-17T04:02:34.667Z,6.10
2022-10-17T04:03:34.924Z,6.20
2022-10-17T04:04:35.153Z,5.80
2022-10-17T04:05:35.385Z,5.60
2022-10-17T04:06:35.611Z,6.00
2022-10-17T04:07:35.890Z,6.20
2022-10-17T04:08:36.130Z,5.80
2022-10-17T04:09:36.362Z,6.30
2022-10-17T04:10:36.605Z,6.40
2022-10-17T04:11:36.841Z,6.70
2022-10-17T04:12:37.091Z,6.00
2022-10-17T04:13:37.346Z,6.40
2022-10-17T04:14:37.595Z,6.40
2022-10-17T04:15:37.813Z,6.30
2022-10-17T04:16:38.083Z,6.30
2022-10-17T04:17:38.459Z,6.80
2022-10-17T04:18:38.600Z,7.20
2022-10-17T04:19:38.846Z,6.70
2022-10-17T04:20:39.074Z,6.90
2022-10-17T04:21:39.355Z,6.80
2022-10-17T04:22:39.634Z,6.80
2022-10-17T04:23:39.891Z,6.90
2022-10-17T04:24:40.130Z,6.90
2022-10-17T04:25:40.364Z,7.30
2022-10-17T04:26:40.609Z,7.00
2022-10-17T04:27:40.848Z,7.20
2022-10-17T04:28:41.095Z,6.90
2022-10-17T04:29:41.322Z,7.30
2022-10-17T04:30:45.070Z,7.10
2022-10-17T04:31:41.829Z,7.10
2022-10-17T04:32:42.086Z,7.00
2022-10-17T04:33:42.327Z,6.90
2022-10-17T04:34:42.567Z,7.50
2022-10-17T04:35:42.818Z,7.20
2022-10-17T04:36:43.062Z,7.30
2022-10-17T04:37:43.338Z,7.20
2022-10-17T04:38:43.610Z,7.10
2022-10-17T04:39:43.856Z,7.20
2022-10-17T04:40:44.112Z,7.00
2022-10-17T04:41:44.374Z,7.50
2022-10-17T04:42:44.681Z,7.20
2022-10-17T04:43:48.457Z,7.60
2022-10-17T04:44:46.091Z,7.20
2022-10-17T04:45:45.317Z,7.10
2022-10-17T04:46:45.560Z,7.50
2022-10-17T04:47:45.824Z,7.50
2022-10-17T04:48:46.061Z,7.50
2022-10-17T04:49:46.301Z,7.40
2022-10-17T04:50:46.537Z,7.50
2022-10-17T04:51:46.809Z,7.40
2022-10-17T04:52:47.084Z,7.00
2022-10-17T04:53:47.337Z,7.10
2022-10-17T04:54:47.599Z,7.10
2022-10-17T04:55:47.865Z,7.40
2022-10-17T04:56:48.117Z,7.10
2022-10-17T04:57:48.388Z,7.30
2022-10-17T04:58:48.634Z,7.20
2022-10-17T04:59:48.877Z,7.10
2022-10-17T05:00:49.140Z,7.20
2022-10-17T05:01:49.467Z,7.30
2022-10-17T05:02:49.705Z,7.30
2022-10-17T05:03:50.014Z,7.30
2022-10-17T05:04:50.242Z,7.30
2022-10-17T05:05:50.484Z,7.30
2022-10-17T05:06:50.747Z,7.10
2022-10-17T05:07:50.992Z,7.50
2022-10-17T05:08:51.235Z,7.20
2022-10-17T05:09:51.477Z,7.30
2022-10-17T05:10:51.802Z,7.40
2022-10-17T05:11:51.994Z,7.10
2022-10-17T05:12:52.245Z,7.30
2022-10-17T05:13:52.493Z,7.40
2022-10-17T05:14:52.751Z,7.70
2022-10-17T05:15:53.000Z,7.50
2022-10-17T05:16:53.241Z,7.40
2022-10-17T05:17:53.524Z,7.40
2022-10-17T05:18:53.772Z,7.50
2022-10-17T05:19:54.027Z,7.60
2022-10-17T05:20:54.262Z,7.50
2022-10-17T05:21:54.544Z,7.50
2022-10-17T05:22:54.770Z,7.80
2022-10-17T05:23:55.022Z,8.00
2022-10-17T05:24:55.290Z,8.20
2022-10-17T05:25:55.556Z,7.50
2022-10-17T05:26:55.798Z,7.90
2022-10-17T05:27:56.050Z,8.20
2022-10-17T05:28:56.347Z,7.70
2022-10-17T05:29:57.425Z,8.50
2022-10-17T05:30:56.855Z,7.40
2022-10-17T05:31:57.136Z,8.00
2022-10-17T05:32:57.366Z,8.20
2022-10-17T05:33:57.641Z,7.80
2022-10-17T05:34:57.878Z,7.70
2022-10-17T05:35:58.157Z,8.10
2022-10-17T05:36:58.401Z,8.00
2022-10-17T05:37:58.639Z,8.40
2022-10-17T05:38:58.898Z,7.80
2022-10-17T05:39:59.181Z,7.80
2022-10-17T05:40:59.420Z,7.80
2022-10-17T05:41:59.660Z,8.00
2022-10-17T05:42:59.916Z,8.00
2022-10-17T05:44:03.165Z,8.20
2022-10-17T05:45:01.357Z,8.20
2022-10-17T05:46:00.595Z,8.00
2022-10-17T05:47:00.836Z,8.00
2022-10-17T05:48:01.071Z,8.80
2022-10-17T05:49:01.339Z,7.70
2022-10-17T05:50:01.613Z,7.80
2022-10-17T05:51:01.870Z,7.80
2022-10-17T05:52:02.100Z,7.60
2022-10-17T05:53:02.330Z,8.10
2022-10-17T05:54:02.579Z,7.80
2022-10-17T05:55:02.837Z,7.90
2022-10-17T05:56:03.085Z,8.20
2022-10-17T05:57:03.325Z,7.20
2022-10-17T05:58:03.564Z,7.80
2022-10-17T05:59:03.807Z,7.50
2022-10-17T06:00:04.064Z,7.40
2022-10-17T06:01:05.534Z,7.90
2022-10-17T06:02:04.625Z,7.40
2022-10-17T06:03:04.732Z,7.50
2022-10-17T06:04:11.979Z,7.40
2022-10-17T06:05:07.835Z,7.60
2022-10-17T06:06:08.054Z,7.30
2022-10-17T06:07:05.615Z,7.30
2022-10-17T06:08:05.841Z,7.20
2022-10-17T06:09:06.078Z,7.30
2022-10-17T06:10:06.306Z,7.30
2022-10-17T06:11:09.862Z,6.90
2022-10-17T06:12:06.755Z,7.20
2022-10-17T06:13:07.046Z,7.30
2022-10-17T06:14:07.273Z,7.00
2022-10-17T06:15:07.518Z,7.00
2022-10-17T06:16:07.761Z,6.70
2022-10-17T06:17:12.088Z,7.00
2022-10-17T06:18:09.188Z,6.90
2022-10-17T06:19:08.412Z,6.80
2022-10-17T06:20:08.657Z,6.90
2022-10-17T06:21:08.898Z,6.80
2022-10-17T06:22:09.142Z,6.70
2022-10-17T06:23:09.378Z,6.90
2022-10-17T06:24:09.622Z,6.50
2022-10-17T06:25:09.880Z,6.60
2022-10-17T06:26:10.136Z,6.50
2022-10-17T06:27:11.870Z,6.80
2022-10-17T06:28:10.559Z,6.20
2022-10-17T06:29:10.897Z,6.10
2022-10-17T06:30:11.057Z,6.30
2022-10-17T06:31:11.287Z,6.10
2022-10-17T06:32:14.931Z,6.00
2022-10-17T06:33:11.729Z,6.70
2022-10-17T06:34:11.976Z,5.80
2022-10-17T06:35:12.199Z,6.20
2022-10-17T06:36:12.428Z,6.00
2022-10-17T06:37:12.659Z,6.10
2022-10-17T06:38:12.887Z,6.30
2022-10-17T06:39:13.126Z,5.90
2022-10-17T06:40:13.357Z,5.80
2022-10-17T06:41:13.582Z,6.00
2022-10-17T06:42:13.804Z,5.70
2022-10-17T06:43:14.040Z,5.70
2022-10-17T06:44:14.283Z,5.90
2022-10-17T06:45:14.505Z,5.80
2022-10-17T06:46:14.714Z,5.80
2022-10-17T06:47:16.644Z,5.50
2022-10-17T06:48:15.226Z,5.60
2022-10-17T06:49:15.466Z,5.60
2022-10-17T06:50:15.703Z,5.70
2022-10-17T06:51:15.919Z,5.40
2022-10-17T06:52:16.154Z,5.40
2022-10-17T06:53:16.394Z,5.40
2022-10-17T06:54:16.604Z,5.50
2022-10-17T06:55:19.657Z,5.20
2022-10-17T06:56:17.997Z,5.20
2022-10-17T06:57:17.217Z,5.40
2022-10-17T06:58:17.669Z,5.20
2022-10-17T06:59:17.643Z,5.30
2022-10-17T07:00:17.875Z,5.20
2022-10-17T07:01:18.085Z,5.20
2022-10-17T07:02:18.332Z,5.10
2022-10-17T07:03:18.562Z,4.70
2022-10-17T07:04:18.777Z,5.00
2022-10-17T07:05:18.990Z,5.00
2022-10-17T07:06:19.343Z,5.10
2022-10-17T07:07:19.429Z,5.20
2022-10-17T07:08:19.665Z,5.20
2022-10-17T07:09:19.883Z,4.90
2022-10-17T07:10:20.187Z,4.90
2022-10-17T07:11:20.281Z,4.40
2022-10-17T07:12:20.509Z,4.50
2022-10-17T07:13:20.736Z,4.60
2022-10-17T07:14:20.962Z,4.20
2022-10-17T07:15:21.177Z,4.30
2022-10-17T07:16:21.373Z,4.60
2022-10-17T07:17:21.576Z,4.40
2022-10-17T07:18:21.831Z,4.20
2022-10-17T07:19:22.060Z,4.30
2022-10-17T07:20:22.270Z,4.00
2022-10-17T07:21:22.472Z,4.20
2022-10-17T07:22:22.679Z,4.30
2022-10-17T07:23:22.896Z,4.30
2022-10-17T07:24:23.116Z,4.10
2022-10-17T07:25:23.311Z,4.20
2022-10-17T07:26:23.515Z,4.10
2022-10-17T07:27:23.734Z,3.80
2022-10-17T07:28:23.991Z,4.10
2022-10-17T07:29:24.126Z,3.90
2022-10-17T07:30:24.364Z,3.90
2022-10-17T07:31:24.564Z,4.00
2022-10-17T07:32:24.785Z,3.90
2022-10-17T07:33:25.023Z,3.90
2022-10-17T07:34:25.247Z,3.50
2022-10-17T07:35:25.449Z,3.40
2022-10-17T07:36:25.668Z,3.60
2022-10-17T07:37:25.880Z,3.60
2022-10-17T07:38:26.190Z,3.50
2022-10-17T07:39:26.282Z,3.60
2022-10-17T07:40:26.464Z,3.30
2022-10-17T07:41:26.662Z,3.60
2022-10-17T07:42:26.868Z,3.60
2022-10-17T07:43:27.088Z,3.60
2022-10-17T07:44:27.298Z,3.80
2022-10-17T07:45:27.496Z,3.50
2022-10-17T07:46:27.708Z,3.20
2022-10-17T07:47:28.095Z,3.30
2022-10-17T07:48:28.108Z,3.40
2022-10-17T07:49:28.288Z,8.20
2022-10-17T07:50:28.526Z,3.60
2022-10-17T07:51:28.599Z,3.20
2022-10-17T07:52:28.952Z,3.10
2022-10-17T07:53:28.973Z,3.30
2022-10-17T07:54:29.175Z,3.40
2022-10-17T07:55:29.342Z,3.10
2022-10-17T07:56:29.544Z,3.20
2022-10-17T07:57:29.722Z,3.40
2022-10-17T07:58:29.909Z,3.10
2022-10-17T07:59:30.091Z,3.30
2022-10-17T08:00:30.267Z,3.50
2022-10-17T08:01:30.447Z,3.10
2022-10-17T08:02:30.935Z,3.00
2022-10-17T08:03:30.780Z,3.30
2022-10-17T08:04:30.969Z,3.00
2022-10-17T08:05:31.138Z,3.30
2022-10-17T08:06:31.389Z,2.80
2022-10-17T08:07:31.454Z,2.80
2022-10-17T08:08:31.665Z,4.40
2022-10-17T08:09:31.743Z,4.00
2022-10-17T08:10:31.920Z,6.10
2022-10-17T08:11:32.079Z,7.60
2022-10-17T08:12:32.705Z,4.40
2022-10-17T08:13:32.386Z,3.50
2022-10-17T08:14:32.429Z,8.80
2022-10-17T08:15:32.584Z,4.00
2022-10-17T08:16:32.744Z,3.20
2022-10-17T08:17:32.892Z,2.90
2022-10-17T08:18:33.056Z,2.90
2022-10-17T08:19:33.217Z,2.70
2022-10-17T08:20:33.383Z,2.80
2022-10-17T08:21:33.528Z,3.00
2022-10-17T08:22:33.673Z,2.70
2022-10-17T08:23:33.841Z,2.60
2022-10-17T08:24:34.002Z,2.80
2022-10-17T08:25:34.137Z,2.60
2022-10-17T08:26:35.049Z,2.60
2022-10-17T08:27:34.477Z,2.70
2022-10-17T08:28:34.679Z,2.60
2022-10-17T08:29:34.805Z,6.60
2022-10-17T08:30:35.019Z,3.00
2022-10-17T08:31:35.070Z,2.80
2022-10-17T08:32:35.228Z,3.00
2022-10-17T08:33:35.409Z,2.90
2022-10-17T08:34:35.570Z,2.50
2022-10-17T08:35:35.730Z,2.50
2022-10-17T08:36:35.997Z,3.20
2022-10-17T08:37:36.042Z,2.60
2022-10-17T08:38:36.942Z,2.60
2022-10-17T08:39:36.289Z,2.60
2022-10-17T08:40:36.440Z,2.40
2022-10-17T08:41:36.574Z,2.80
2022-10-17T08:42:36.717Z,2.70
2022-10-17T08:43:36.874Z,2.40
2022-10-17T08:44:37.016Z,2.60
2022-10-17T08:45:37.167Z,2.40
2022-10-17T08:46:37.348Z,2.70
2022-10-17T08:47:37.476Z,2.60
2022-10-17T08:48:37.636Z,2.50
2022-10-17T08:49:37.780Z,2.60
2022-10-17T08:50:37.919Z,2.60
2022-10-17T08:51:38.120Z,2.40
2022-10-17T08:52:38.153Z,2.60
2022-10-17T08:53:38.311Z,2.50
2022-10-17T08:54:38.453Z,2.80
2022-10-17T08:55:41.343Z,2.50
2022-10-17T08:56:55.054Z,2.50
2022-10-17T08:57:39.851Z,2.30
2022-10-17T08:58:38.891Z,2.30
2022-10-17T08:59:39.034Z,2.40
2022-10-17T09:00:39.167Z,2.40
2022-10-17T09:01:39.307Z,2.10
2022-10-17T09:02:39.480Z,2.20
2022-10-17T09:03:39.621Z,2.20
2022-10-17T09:04:39.775Z,2.10
2022-10-17T09:05:39.880Z,2.40
2022-10-17T09:06:40.168Z,2.40
2022-10-17T09:07:40.094Z,2.20
2022-10-17T09:08:40.234Z,2.40
2022-10-17T09:09:40.375Z,2.00
2022-10-17T09:10:40.490Z,2.30
2022-10-17T09:11:40.612Z,2.00
2022-10-17T09:12:40.731Z,2.30
2022-10-17T09:13:40.866Z,2.30
2022-10-17T09:14:40.997Z,2.20
2022-10-17T09:15:41.118Z,2.20
2022-10-17T09:16:41.242Z,2.60
2022-10-17T09:17:41.391Z,2.40
2022-10-17T09:18:41.533Z,2.10
2022-10-17T09:19:41.663Z,2.30
2022-10-17T09:20:41.773Z,2.20
2022-10-17T09:21:41.903Z,2.30
2022-10-17T09:22:42.060Z,2.40
2022-10-17T09:23:42.622Z,2.30
2022-10-17T09:24:42.333Z,2.10
2022-10-17T09:25:42.454Z,2.20
2022-10-17T09:26:42.582Z,2.40
2022-10-17T09:27:42.712Z,2.10
2022-10-17T09:28:42.887Z,2.10
2022-10-17T09:29:43.974Z,2.30
2022-10-17T09:30:45.589Z,2.10
2022-10-17T09:31:43.163Z,2.80
2022-10-17T09:32:43.324Z,2.30
2022-10-17T09:33:54.269Z,2.40
2022-10-17T09:34:44.541Z,2.30
2022-10-17T09:35:43.657Z,2.30
2022-10-17T09:36:43.775Z,2.20
2022-10-17T09:37:43.894Z,2.50
2022-10-17T09:38:44.054Z,2.50
2022-10-17T09:39:44.060Z,2.30
2022-10-17T09:40:44.171Z,2.30
2022-10-17T09:41:46.536Z,2.30
2022-10-17T09:42:44.359Z,2.30
2022-10-17T09:43:44.493Z,2.30
2022-10-17T09:44:44.612Z,2.50
2022-10-17T09:45:44.794Z,2.90
2022-10-17T09:46:44.794Z,2.20
2022-10-17T09:47:44.894Z,2.00
2022-10-17T09:48:46.200Z,2.40
2022-10-17T09:49:45.131Z,2.20
2022-10-17T09:50:48.257Z,2.30
2022-10-17T09:51:46.327Z,2.20
2022-10-17T09:52:45.432Z,2.40
2022-10-17T09:53:45.556Z,2.20
2022-10-17T09:54:45.661Z,2.30
2022-10-17T09:55:45.766Z,2.20
2022-10-17T09:56:45.872Z,2.10
2022-10-17T09:57:45.998Z,2.00
2022-10-17T09:58:46.111Z,2.20
2022-10-17T09:59:46.217Z,2.40
2022-10-17T10:00:46.394Z,2.10
2022-10-17T10:01:46.386Z,2.10
2022-10-17T10:02:46.490Z,2.30
2022-10-17T10:03:46.619Z,2.60
2022-10-17T10:05:03.239Z,2.40
2022-10-17T10:05:47.766Z,2.20
2022-10-17T10:06:46.849Z,2.20
2022-10-17T10:07:46.937Z,2.20
2022-10-17T10:08:47.006Z,2.30
2022-10-17T10:09:47.097Z,2.40
2022-10-17T10:10:47.189Z,2.30
2022-10-17T10:11:47.347Z,2.20
2022-10-17T10:12:47.337Z,2.00
2022-10-17T10:13:47.439Z,2.30
2022-10-17T10:14:47.528Z,2.20
2022-10-17T10:15:47.649Z,2.20
2022-10-17T10:16:47.723Z,2.50
2022-10-17T10:17:48.767Z,2.50
2022-10-17T10:18:50.087Z,2.20
2022-10-17T10:19:47.897Z,2.10
2022-10-17T10:20:47.991Z,2.20
2022-10-17T10:21:48.066Z,2.30
2022-10-17T10:22:48.222Z,2.40
2022-10-17T10:23:48.219Z,2.30
2022-10-17T10:24:48.328Z,2.20
2022-10-17T10:25:48.424Z,2.10
2022-10-17T10:26:48.519Z,2.20
2022-10-17T10:27:48.623Z,2.30
2022-10-17T10:28:48.837Z,2.20
2022-10-17T10:29:48.859Z,2.20
2022-10-17T10:30:48.992Z,2.30
2022-10-17T10:31:49.114Z,2.50
2022-10-17T10:32:49.193Z,2.00
2022-10-17T10:33:50.913Z,2.30
2022-10-17T10:34:49.422Z,2.30
2022-10-17T10:35:49.519Z,2.50
2022-10-17T10:36:49.635Z,2.20
2022-10-17T10:37:49.732Z,2.20
2022-10-17T10:38:49.856Z,2.20
2022-10-17T10:39:49.986Z,2.20
2022-10-17T10:40:50.091Z,2.10
2022-10-17T10:41:50.206Z,2.00
2022-10-17T10:42:50.303Z,2.00
2022-10-17T10:43:50.430Z,2.00
2022-10-17T10:44:50.549Z,1.90
2022-10-17T10:45:50.649Z,2.10
2022-10-17T10:46:50.749Z,2.10
2022-10-17T10:47:50.873Z,2.00
2022-10-17T10:48:50.985Z,2.10
2022-10-17T10:49:51.082Z,2.10
2022-10-17T10:50:51.167Z,2.20
2022-10-17T10:51:51.259Z,2.40
2022-10-17T10:52:51.344Z,2.20
2022-10-17T10:53:51.454Z,1.90
2022-10-17T10:54:51.544Z,2.30
2022-10-17T10:55:51.634Z,2.00
2022-10-17T10:56:53.464Z,1.90
2022-10-17T10:57:51.767Z,2.00
2022-10-17T10:58:51.873Z,1.90
2022-10-17T10:59:51.975Z,1.90
2022-10-17T11:00:52.119Z,1.90
2022-10-17T11:01:52.104Z,1.70
2022-10-17T11:02:52.202Z,1.80
2022-10-17T11:03:52.304Z,1.80
2022-10-17T11:04:52.403Z,2.00
2022-10-17T11:05:52.486Z,1.70
2022-10-17T11:06:52.557Z,1.90
2022-10-17T11:07:52.654Z,1.90
2022-10-17T11:08:52.753Z,1.80
2022-10-17T11:09:52.827Z,1.60
2022-10-17T11:10:52.904Z,1.90
2022-10-17T11:11:53.180Z,1.90
2022-10-17T11:12:53.038Z,1.80
2022-10-17T11:13:54.129Z,1.80
2022-10-17T11:14:53.184Z,1.80
2022-10-17T11:15:53.260Z,2.10
2022-10-17T11:16:53.342Z,1.70
2022-10-17T11:17:53.456Z,1.70
2022-10-17T11:18:53.550Z,1.90
2022-10-17T11:19:53.630Z,2.00
2022-10-17T11:20:53.736Z,1.90
2022-10-17T11:21:53.827Z,2.00
2022-10-17T11:22:53.930Z,2.10
2022-10-17T11:23:54.018Z,1.90
2022-10-17T11:24:54.116Z,2.10
2022-10-17T11:25:54.202Z,1.90
2022-10-17T11:26:54.276Z,1.90
2022-10-17T11:27:54.365Z,2.00
2022-10-17T11:28:54.555Z,1.90
2022-10-17T11:29:54.557Z,1.80
2022-10-17T11:30:54.635Z,1.90
2022-10-17T11:31:54.721Z,2.30
2022-10-17T11:32:57.734Z,1.80
2022-10-17T11:33:54.867Z,2.10
2022-10-17T11:34:54.837Z,2.10
2022-10-17T11:35:54.926Z,2.00
2022-10-17T11:36:55.018Z,1.70
2022-10-17T11:37:55.107Z,1.90
2022-10-17T11:38:55.218Z,2.00
2022-10-17T11:39:55.317Z,2.20
2022-10-17T11:40:55.410Z,2.00
2022-10-17T11:41:55.587Z,2.10
2022-10-17T11:42:55.567Z,2.10
2022-10-17T11:43:55.691Z,2.20
2022-10-17T11:44:55.992Z,2.20
2022-10-17T11:45:55.862Z,2.00
2022-10-17T11:46:55.962Z,1.90
2022-10-17T11:47:56.058Z,2.20
2022-10-17T11:48:56.179Z,2.00
2022-10-17T11:49:56.532Z,1.90
2022-10-17T11:52:00.844Z,2.00
2022-10-17T11:52:57.246Z,2.10
2022-10-17T11:53:56.761Z,2.00
2022-10-17T11:54:56.858Z,2.20
2022-10-17T11:55:56.976Z,2.20
2022-10-17T11:57:00.916Z,2.10
2022-10-17T11:57:57.250Z,1.90
2022-10-17T11:58:57.161Z,2.50
2022-10-17T11:59:57.301Z,2.10
2022-10-17T12:00:57.390Z,2.10
2022-10-17T12:01:57.497Z,2.20
2022-10-17T12:02:57.597Z,2.10
2022-10-17T12:03:57.739Z,2.20
2022-10-17T12:05:04.835Z,2.20
2022-10-17T12:05:57.930Z,2.30
2022-10-17T12:06:58.031Z,2.00
2022-10-17T12:07:58.049Z,2.10
2022-10-17T12:08:58.204Z,2.10
2022-10-17T12:09:58.801Z,2.00
2022-10-17T12:10:58.238Z,2.00
2022-10-17T12:11:58.333Z,2.30
2022-10-17T12:12:58.456Z,2.00
2022-10-17T12:14:00.083Z,2.00
2022-10-17T12:14:58.665Z,2.10
2022-10-17T12:15:58.780Z,2.00
2022-10-17T12:16:59.439Z,2.20
2022-10-17T12:17:59.012Z,2.40
2022-10-17T12:18:59.131Z,1.90
2022-10-17T12:19:59.231Z,2.10
2022-10-17T12:21:00.812Z,2.30
2022-10-17T12:21:59.431Z,2.20
2022-10-17T12:22:59.588Z,2.20
2022-10-17T12:23:59.584Z,2.30
2022-10-17T12:24:59.668Z,2.10
2022-10-17T12:26:04.808Z,2.30
2022-10-17T12:26:59.876Z,2.00
2022-10-17T12:27:59.983Z,2.10
2022-10-17T12:29:00.182Z,2.10
2022-10-17T12:30:00.294Z,2.10
2022-10-17T12:31:00.285Z,2.00
2022-10-17T12:32:00.387Z,2.20
2022-10-17T12:33:08.397Z,1.90
2022-10-17T12:34:01.644Z,2.20
2022-10-17T12:35:01.386Z,2.20
2022-10-17T12:36:00.732Z,2.30
2022-10-17T12:37:00.721Z,2.40
2022-10-17T12:38:00.823Z,2.40
2022-10-17T12:39:01.519Z,2.20
2022-10-17T12:40:00.942Z,2.10
2022-10-17T12:41:01.024Z,2.30
2022-10-17T12:42:01.124Z,2.10
2022-10-17T12:43:01.184Z,2.00
2022-10-17T12:44:01.260Z,2.30
2022-10-17T12:45:01.420Z,1.90
2022-10-17T12:46:01.538Z,2.10
2022-10-17T12:47:01.630Z,2.20
2022-10-17T12:48:01.753Z,2.00
2022-10-17T12:49:02.404Z,2.20
2022-10-17T12:50:01.913Z,2.40
2022-10-17T12:51:35.175Z,2.00
2022-10-17T12:52:02.918Z,1.90
2022-10-17T12:53:02.018Z,2.10
2022-10-17T12:54:02.133Z,2.10
2022-10-17T12:55:17.282Z,1.90
2022-10-17T12:56:03.402Z,2.20
2022-10-17T12:57:02.419Z,2.00
2022-10-17T12:58:02.529Z,2.30
2022-10-17T12:59:02.628Z,2.20
2022-10-17T13:00:02.821Z,2.10
2022-10-17T13:01:23.004Z,2.30
2022-10-17T13:02:03.934Z,2.30
2022-10-17T13:03:03.038Z,2.20
2022-10-17T13:04:03.157Z,2.20
2022-10-17T13:05:03.298Z,2.10
2022-10-17T13:06:03.429Z,2.10
2022-10-17T13:07:03.546Z,2.30
2022-10-17T13:08:03.666Z,2.00
2022-10-17T13:09:05.273Z,2.20
2022-10-17T13:10:03.865Z,2.10
2022-10-17T13:11:04.015Z,2.60
2022-10-17T13:12:04.149Z,2.40
2022-10-17T13:13:04.369Z,2.50
2022-10-17T13:14:04.376Z,2.10
2022-10-17T13:15:04.503Z,2.50
2022-10-17T13:16:04.670Z,2.20
2022-10-17T13:17:04.797Z,2.30
2022-10-17T13:18:04.979Z,2.50
2022-10-17T13:19:05.037Z,2.50
2022-10-17T13:20:05.070Z,2.60
2022-10-17T13:21:05.211Z,2.40
2022-10-17T13:22:07.154Z,2.10